sensor_id;sensor_type;location;lat;lon;timestamp;P1;durP1;ratioP1;P2;durP2;ratioP2
64550;SDS011;50945;44.472;-123.352;2022-08-19T00:01:26;14.63;;;7.65;;
64550;SDS011;50945;44.472;-123.352;2022-08-19T00:03:58;14.95;;;7.30;;
64550;SDS011;50945;44.472;-123.352;2022-08-19T00:06:29;14.13;;;7.95;;
64550;SDS011;50945;44.472;-123.352;2022-08-19T00:08:56;22.23;;;7.65;;
64550;SDS011;50945;44.472;-123.352;2022-08-19T00:11:25;14.95;;;7.00;;
64550;SDS011;50945;44.472;-123.352;2022-08-19T00:13:55;16.35;;;7.45;;
64550;SDS011;50945;44.472;-123.352;2022-08-19T00:16:22;15.85;;;8.02;;
64550;SDS011;50945;44.472;-123.352;2022-08-19T00:18:50;20.02;;;8.05;;
64550;SDS011;50945;44.472;-123.352;2022-08-19T00:21:16;18.40;;;6.93;;
64550;SDS011;50945;44.472;-123.352;2022-08-19T00:23:43;17.58;;;7.60;;
64550;SDS011;50945;44.472;-123.352;2022-08-19T00:26:10;16.88;;;7.53;;
64550;SDS011;50945;44.472;-123.352;2022-08-19T00:28:37;12.20;;;6.88;;
64550;SDS011;50945;44.472;-123.352;2022-08-19T00:31:04;10.63;;;6.78;;
64550;SDS011;50945;44.472;-123.352;2022-08-19T00:33:31;13.82;;;7.07;;
64550;SDS011;50945;44.472;-123.352;2022-08-19T00:35:58;16.98;;;7.20;;
64550;SDS011;50945;44.472;-123.352;2022-08-19T00:38:25;18.08;;;7.07;;
64550;SDS011;50945;44.472;-123.352;2022-08-19T00:40:52;10.18;;;6.43;;
64550;SDS011;50945;44.472;-123.352;2022-08-19T00:43:19;15.25;;;6.60;;
64550;SDS011;50945;44.472;-123.352;2022-08-19T00:45:47;11.85;;;6.65;;
64550;SDS011;50945;44.472;-123.352;2022-08-19T00:48:16;20.23;;;7.18;;
64550;SDS011;50945;44.472;-123.352;2022-08-19T00:50:43;13.32;;;6.20;;
64550;SDS011;50945;44.472;-123.352;2022-08-19T00:53:11;10.23;;;4.60;;
64550;SDS011;50945;44.472;-123.352;2022-08-19T00:55:40;7.75;;;4.70;;
64550;SDS011;50945;44.472;-123.352;2022-08-19T00:58:11;8.02;;;5.07;;
64550;SDS011;50945;44.472;-123.352;2022-08-19T01:00:40;5.28;;;4.35;;
64550;SDS011;50945;44.472;-123.352;2022-08-19T01:03:08;6.57;;;3.75;;
64550;SDS011;50945;44.472;-123.352;2022-08-19T01:05:37;3.65;;;3.17;;
64550;SDS011;50945;44.472;-123.352;2022-08-19T01:08:06;5.05;;;3.10;;
64550;SDS011;50945;44.472;-123.352;2022-08-19T01:10:36;9.05;;;3.40;;
64550;SDS011;50945;44.472;-123.352;2022-08-19T01:13:05;6.32;;;3.63;;
64550;SDS011;50945;44.472;-123.352;2022-08-19T01:15:33;4.97;;;3.42;;
64550;SDS011;50945;44.472;-123.352;2022-08-19T01:18:05;8.02;;;3.50;;
64550;SDS011;50945;44.472;-123.352;2022-08-19T01:20:33;4.88;;;3.53;;
64550;SDS011;50945;44.472;-123.352;2022-08-19T01:23:00;4.18;;;3.20;;
64550;SDS011;50945;44.472;-123.352;2022-08-19T01:25:31;5.80;;;2.95;;
64550;SDS011;50945;44.472;-123.352;2022-08-19T01:28:02;6.38;;;3.17;;
64550;SDS011;50945;44.472;-123.352;2022-08-19T01:30:30;6.80;;;3.30;;
64550;SDS011;50945;44.472;-123.352;2022-08-19T01:32:58;6.90;;;3.53;;
64550;SDS011;50945;44.472;-123.352;2022-08-19T01:35:26;6.95;;;3.20;;
64550;SDS011;50945;44.472;-123.352;2022-08-19T01:37:56;6.60;;;3.20;;
64550;SDS011;50945;44.472;-123.352;2022-08-19T01:40:29;5.18;;;3.35;;
64550;SDS011;50945;44.472;-123.352;2022-08-19T01:42:58;3.60;;;3.30;;
64550;SDS011;50945;44.472;-123.352;2022-08-19T01:45:26;3.25;;;2.80;;
64550;SDS011;50945;44.472;-123.352;2022-08-19T01:47:53;4.20;;;3.40;;
64550;SDS011;50945;44.472;-123.352;2022-08-19T01:50:20;6.00;;;3.10;;
64550;SDS011;50945;44.472;-123.352;2022-08-19T01:52:47;7.30;;;2.95;;
64550;SDS011;50945;44.472;-123.352;2022-08-19T01:55:15;5.40;;;2.90;;
64550;SDS011;50945;44.472;-123.352;2022-08-19T01:57:46;3.30;;;2.72;;
64550;SDS011;50945;44.472;-123.352;2022-08-19T02:00:18;3.88;;;2.60;;
64550;SDS011;50945;44.472;-123.352;2022-08-19T02:02:45;6.30;;;3.10;;
64550;SDS011;50945;44.472;-123.352;2022-08-19T02:05:11;3.80;;;2.70;;
64550;SDS011;50945;44.472;-123.352;2022-08-19T02:07:38;3.05;;;2.60;;
64550;SDS011;50945;44.472;-123.352;2022-08-19T02:10:08;4.88;;;3.15;;
64550;SDS011;50945;44.472;-123.352;2022-08-19T02:12:37;5.05;;;2.53;;
64550;SDS011;50945;44.472;-123.352;2022-08-19T02:15:03;3.65;;;2.30;;
64550;SDS011;50945;44.472;-123.352;2022-08-19T02:17:31;3.70;;;2.80;;
64550;SDS011;50945;44.472;-123.352;2022-08-19T02:19:58;2.60;;;2.40;;
64550;SDS011;50945;44.472;-123.352;2022-08-19T02:22:25;3.53;;;2.58;;
64550;SDS011;50945;44.472;-123.352;2022-08-19T02:24:52;3.25;;;2.53;;
64550;SDS011;50945;44.472;-123.352;2022-08-19T02:27:19;2.92;;;2.40;;
64550;SDS011;50945;44.472;-123.352;2022-08-19T02:29:46;3.25;;;2.58;;
64550;SDS011;50945;44.472;-123.352;2022-08-19T02:32:14;4.80;;;2.10;;
64550;SDS011;50945;44.472;-123.352;2022-08-19T02:34:41;4.40;;;2.50;;
64550;SDS011;50945;44.472;-123.352;2022-08-19T02:37:08;2.85;;;2.30;;
64550;SDS011;50945;44.472;-123.352;2022-08-19T02:39:57;2.78;;;2.40;;
64550;SDS011;50945;44.472;-123.352;2022-08-19T02:42:24;4.03;;;2.42;;
64550;SDS011;50945;44.472;-123.352;2022-08-19T02:44:51;2.92;;;2.47;;
64550;SDS011;50945;44.472;-123.352;2022-08-19T02:47:17;4.03;;;2.50;;
64550;SDS011;50945;44.472;-123.352;2022-08-19T02:49:47;3.13;;;2.20;;
64550;SDS011;50945;44.472;-123.352;2022-08-19T02:52:15;3.42;;;2.83;;
64550;SDS011;50945;44.472;-123.352;2022-08-19T02:54:41;2.88;;;2.58;;
64550;SDS011;50945;44.472;-123.352;2022-08-19T02:57:09;3.95;;;2.45;;
64550;SDS011;50945;44.472;-123.352;2022-08-19T02:59:36;3.55;;;2.50;;
64550;SDS011;50945;44.472;-123.352;2022-08-19T03:02:02;3.78;;;2.30;;
64550;SDS011;50945;44.472;-123.352;2022-08-19T03:04:29;5.63;;;2.17;;
64550;SDS011;50945;44.472;-123.352;2022-08-19T03:06:55;5.72;;;2.63;;
64550;SDS011;50945;44.472;-123.352;2022-08-19T03:09:22;2.65;;;2.30;;
64550;SDS011;50945;44.472;-123.352;2022-08-19T03:11:48;2.58;;;2.38;;
64550;SDS011;50945;44.472;-123.352;2022-08-19T03:14:15;4.13;;;2.47;;
64550;SDS011;50945;44.472;-123.352;2022-08-19T03:16:44;4.20;;;2.17;;
64550;SDS011;50945;44.472;-123.352;2022-08-19T03:19:13;7.13;;;2.60;;
64550;SDS011;50945;44.472;-123.352;2022-08-19T03:21:41;3.00;;;2.65;;
64550;SDS011;50945;44.472;-123.352;2022-08-19T03:24:10;3.40;;;2.53;;
64550;SDS011;50945;44.472;-123.352;2022-08-19T03:26:40;4.18;;;2.55;;
64550;SDS011;50945;44.472;-123.352;2022-08-19T03:31:36;2.50;;;2.30;;
64550;SDS011;50945;44.472;-123.352;2022-08-19T03:34:04;2.50;;;2.30;;
64550;SDS011;50945;44.472;-123.352;2022-08-19T03:36:31;3.63;;;2.78;;
64550;SDS011;50945;44.472;-123.352;2022-08-19T03:38:58;3.60;;;2.50;;
64550;SDS011;50945;44.472;-123.352;2022-08-19T03:41:28;3.92;;;2.42;;
64550;SDS011;50945;44.472;-123.352;2022-08-19T03:43:58;3.13;;;2.72;;
64550;SDS011;50945;44.472;-123.352;2022-08-19T03:46:27;3.78;;;2.78;;
64550;SDS011;50945;44.472;-123.352;2022-08-19T03:48:56;5.45;;;2.80;;
64550;SDS011;50945;44.472;-123.352;2022-08-19T03:51:26;3.42;;;2.58;;
64550;SDS011;50945;44.472;-123.352;2022-08-19T03:53:56;4.55;;;2.40;;
64550;SDS011;50945;44.472;-123.352;2022-08-19T03:56:24;2.55;;;2.30;;
64550;SDS011;50945;44.472;-123.352;2022-08-19T03:58:53;3.17;;;2.88;;
64550;SDS011;50945;44.472;-123.352;2022-08-19T04:01:21;3.40;;;2.67;;
64550;SDS011;50945;44.472;-123.352;2022-08-19T04:03:49;3.83;;;2.38;;
64550;SDS011;50945;44.472;-123.352;2022-08-19T04:06:20;3.40;;;2.50;;
64550;SDS011;50945;44.472;-123.352;2022-08-19T04:08:56;3.05;;;2.30;;
64550;SDS011;50945;44.472;-123.352;2022-08-19T04:11:57;2.92;;;2.60;;
64550;SDS011;50945;44.472;-123.352;2022-08-19T04:14:20;3.72;;;2.92;;
64550;SDS011;50945;44.472;-123.352;2022-08-19T04:16:49;2.70;;;2.33;;
64550;SDS011;50945;44.472;-123.352;2022-08-19T04:19:17;3.38;;;2.60;;
64550;SDS011;50945;44.472;-123.352;2022-08-19T04:21:45;2.72;;;2.53;;
64550;SDS011;50945;44.472;-123.352;2022-08-19T04:24:14;4.03;;;2.47;;
64550;SDS011;50945;44.472;-123.352;2022-08-19T04:26:41;4.88;;;2.55;;
64550;SDS011;50945;44.472;-123.352;2022-08-19T04:29:09;2.60;;;2.40;;
64550;SDS011;50945;44.472;-123.352;2022-08-19T04:31:38;5.40;;;3.00;;
64550;SDS011;50945;44.472;-123.352;2022-08-19T04:34:07;2.72;;;2.53;;
64550;SDS011;50945;44.472;-123.352;2022-08-19T04:36:38;3.88;;;2.40;;
64550;SDS011;50945;44.472;-123.352;2022-08-19T04:39:10;3.30;;;2.40;;
64550;SDS011;50945;44.472;-123.352;2022-08-19T04:41:40;5.75;;;3.00;;
64550;SDS011;50945;44.472;-123.352;2022-08-19T04:44:25;4.70;;;2.80;;
64550;SDS011;50945;44.472;-123.352;2022-08-19T04:46:52;4.57;;;2.90;;
64550;SDS011;50945;44.472;-123.352;2022-08-19T04:49:20;2.92;;;2.63;;
64550;SDS011;50945;44.472;-123.352;2022-08-19T04:51:48;2.67;;;2.47;;
64550;SDS011;50945;44.472;-123.352;2022-08-19T04:54:16;3.90;;;2.75;;
64550;SDS011;50945;44.472;-123.352;2022-08-19T04:56:44;4.82;;;2.40;;
64550;SDS011;50945;44.472;-123.352;2022-08-19T04:59:10;2.55;;;2.35;;
64550;SDS011;50945;44.472;-123.352;2022-08-19T05:01:36;4.53;;;2.72;;
64550;SDS011;50945;44.472;-123.352;2022-08-19T05:04:04;4.45;;;2.40;;
64550;SDS011;50945;44.472;-123.352;2022-08-19T05:06:32;2.78;;;2.42;;
64550;SDS011;50945;44.472;-123.352;2022-08-19T05:09:00;3.13;;;2.47;;
64550;SDS011;50945;44.472;-123.352;2022-08-19T05:11:30;2.60;;;2.42;;
64550;SDS011;50945;44.472;-123.352;2022-08-19T05:14:00;3.58;;;2.40;;
64550;SDS011;50945;44.472;-123.352;2022-08-19T05:16:27;6.75;;;3.00;;
64550;SDS011;50945;44.472;-123.352;2022-08-19T05:18:54;5.45;;;2.28;;
64550;SDS011;50945;44.472;-123.352;2022-08-19T05:21:39;4.50;;;2.42;;
64550;SDS011;50945;44.472;-123.352;2022-08-19T05:24:25;3.22;;;2.53;;
64550;SDS011;50945;44.472;-123.352;2022-08-19T05:26:52;2.78;;;2.47;;
64550;SDS011;50945;44.472;-123.352;2022-08-19T05:29:22;3.17;;;2.65;;
64550;SDS011;50945;44.472;-123.352;2022-08-19T05:31:51;3.92;;;2.05;;
64550;SDS011;50945;44.472;-123.352;2022-08-19T05:34:19;3.88;;;2.72;;
64550;SDS011;50945;44.472;-123.352;2022-08-19T05:36:48;3.53;;;2.38;;
64550;SDS011;50945;44.472;-123.352;2022-08-19T05:39:18;2.50;;;2.30;;
64550;SDS011;50945;44.472;-123.352;2022-08-19T05:41:46;2.75;;;2.10;;
64550;SDS011;50945;44.472;-123.352;2022-08-19T05:44:15;4.25;;;2.10;;
64550;SDS011;50945;44.472;-123.352;2022-08-19T05:46:45;2.75;;;2.17;;
64550;SDS011;50945;44.472;-123.352;2022-08-19T05:49:18;4.25;;;1.98;;
64550;SDS011;50945;44.472;-123.352;2022-08-19T05:51:46;3.13;;;2.55;;
64550;SDS011;50945;44.472;-123.352;2022-08-19T05:54:16;2.20;;;2.00;;
64550;SDS011;50945;44.472;-123.352;2022-08-19T05:56:43;2.53;;;2.05;;
64550;SDS011;50945;44.472;-123.352;2022-08-19T05:59:13;2.20;;;1.98;;
64550;SDS011;50945;44.472;-123.352;2022-08-19T06:01:41;3.83;;;2.55;;
64550;SDS011;50945;44.472;-123.352;2022-08-19T06:04:09;5.00;;;1.98;;
64550;SDS011;50945;44.472;-123.352;2022-08-19T06:06:36;2.47;;;2.28;;
64550;SDS011;50945;44.472;-123.352;2022-08-19T06:09:03;2.40;;;1.88;;
64550;SDS011;50945;44.472;-123.352;2022-08-19T06:14:04;1.63;;;1.50;;
64550;SDS011;50945;44.472;-123.352;2022-08-19T06:16:37;3.05;;;1.88;;
64550;SDS011;50945;44.472;-123.352;2022-08-19T06:19:06;3.10;;;2.00;;
64550;SDS011;50945;44.472;-123.352;2022-08-19T06:21:36;5.03;;;2.05;;
64550;SDS011;50945;44.472;-123.352;2022-08-19T06:24:05;2.50;;;1.80;;
64550;SDS011;50945;44.472;-123.352;2022-08-19T06:26:34;4.75;;;1.90;;
64550;SDS011;50945;44.472;-123.352;2022-08-19T06:29:03;3.20;;;1.80;;
64550;SDS011;50945;44.472;-123.352;2022-08-19T06:31:31;1.98;;;1.75;;
64550;SDS011;50945;44.472;-123.352;2022-08-19T06:34:00;3.20;;;1.90;;
64550;SDS011;50945;44.472;-123.352;2022-08-19T06:36:34;2.75;;;1.95;;
64550;SDS011;50945;44.472;-123.352;2022-08-19T06:39:04;3.10;;;1.88;;
64550;SDS011;50945;44.472;-123.352;2022-08-19T06:41:37;2.53;;;1.70;;
64550;SDS011;50945;44.472;-123.352;2022-08-19T06:44:05;1.63;;;1.50;;
64550;SDS011;50945;44.472;-123.352;2022-08-19T06:46:32;2.03;;;1.70;;
64550;SDS011;50945;44.472;-123.352;2022-08-19T06:48:59;2.42;;;1.42;;
64550;SDS011;50945;44.472;-123.352;2022-08-19T06:51:26;1.52;;;1.42;;
64550;SDS011;50945;44.472;-123.352;2022-08-19T06:56:20;1.60;;;1.30;;
64550;SDS011;50945;44.472;-123.352;2022-08-19T06:58:50;2.92;;;1.33;;
64550;SDS011;50945;44.472;-123.352;2022-08-19T07:01:18;3.72;;;1.98;;
64550;SDS011;50945;44.472;-123.352;2022-08-19T07:03:45;1.80;;;1.70;;
64550;SDS011;50945;44.472;-123.352;2022-08-19T07:06:13;1.70;;;1.60;;
64550;SDS011;50945;44.472;-123.352;2022-08-19T07:08:43;1.70;;;1.60;;
64550;SDS011;50945;44.472;-123.352;2022-08-19T07:11:13;1.33;;;1.23;;
64550;SDS011;50945;44.472;-123.352;2022-08-19T07:13:43;1.70;;;1.60;;
64550;SDS011;50945;44.472;-123.352;2022-08-19T07:16:15;2.20;;;1.50;;
64550;SDS011;50945;44.472;-123.352;2022-08-19T07:18:48;1.23;;;1.10;;
64550;SDS011;50945;44.472;-123.352;2022-08-19T07:21:16;1.58;;;1.48;;
64550;SDS011;50945;44.472;-123.352;2022-08-19T07:23:46;1.60;;;1.50;;
64550;SDS011;50945;44.472;-123.352;2022-08-19T07:28:44;1.45;;;1.35;;
64550;SDS011;50945;44.472;-123.352;2022-08-19T07:31:13;1.35;;;1.35;;
64550;SDS011;50945;44.472;-123.352;2022-08-19T07:33:43;1.50;;;1.40;;
64550;SDS011;50945;44.472;-123.352;2022-08-19T07:36:11;1.30;;;1.27;;
64550;SDS011;50945;44.472;-123.352;2022-08-19T07:38:40;1.73;;;1.58;;
64550;SDS011;50945;44.472;-123.352;2022-08-19T07:41:11;2.45;;;1.60;;
64550;SDS011;50945;44.472;-123.352;2022-08-19T07:43:40;1.38;;;0.95;;
64550;SDS011;50945;44.472;-123.352;2022-08-19T07:46:09;1.67;;;1.30;;
64550;SDS011;50945;44.472;-123.352;2022-08-19T07:48:36;1.20;;;1.17;;
64550;SDS011;50945;44.472;-123.352;2022-08-19T07:53:31;1.30;;;1.20;;
64550;SDS011;50945;44.472;-123.352;2022-08-19T07:55:58;1.65;;;1.33;;
64550;SDS011;50945;44.472;-123.352;2022-08-19T07:58:33;1.30;;;1.20;;
64550;SDS011;50945;44.472;-123.352;2022-08-19T08:01:03;1.02;;;1.02;;
64550;SDS011;50945;44.472;-123.352;2022-08-19T08:03:32;2.53;;;1.27;;
64550;SDS011;50945;44.472;-123.352;2022-08-19T08:06:17;1.30;;;1.20;;
64550;SDS011;50945;44.472;-123.352;2022-08-19T08:09:03;1.00;;;1.00;;
64550;SDS011;50945;44.472;-123.352;2022-08-19T08:11:52;1.42;;;1.33;;
64550;SDS011;50945;44.472;-123.352;2022-08-19T08:15:04;4.20;;;1.63;;
64550;SDS011;50945;44.472;-123.352;2022-08-19T08:17:13;1.80;;;1.70;;
64550;SDS011;50945;44.472;-123.352;2022-08-19T08:19:44;1.33;;;1.17;;
64550;SDS011;50945;44.472;-123.352;2022-08-19T08:22:11;2.38;;;1.63;;
64550;SDS011;50945;44.472;-123.352;2022-08-19T08:25:09;2.03;;;1.20;;
64550;SDS011;50945;44.472;-123.352;2022-08-19T08:27:39;3.30;;;1.30;;
64550;SDS011;50945;44.472;-123.352;2022-08-19T08:30:24;1.48;;;1.30;;
64550;SDS011;50945;44.472;-123.352;2022-08-19T08:32:52;1.45;;;1.38;;
64550;SDS011;50945;44.472;-123.352;2022-08-19T08:35:19;1.92;;;1.58;;
64550;SDS011;50945;44.472;-123.352;2022-08-19T08:37:48;2.30;;;1.35;;
64550;SDS011;50945;44.472;-123.352;2022-08-19T08:49:07;1.50;;;1.27;;
64550;SDS011;50945;44.472;-123.352;2022-08-19T08:51:40;1.30;;;1.20;;
64550;SDS011;50945;44.472;-123.352;2022-08-19T08:54:13;1.83;;;1.48;;
64550;SDS011;50945;44.472;-123.352;2022-08-19T08:56:43;1.83;;;1.20;;
64550;SDS011;50945;44.472;-123.352;2022-08-19T09:01:49;1.23;;;1.13;;
64550;SDS011;50945;44.472;-123.352;2022-08-19T09:04:16;1.50;;;1.40;;
64550;SDS011;50945;44.472;-123.352;2022-08-19T09:09:17;1.63;;;0.98;;
64550;SDS011;50945;44.472;-123.352;2022-08-19T09:17:00;1.40;;;1.30;;
64550;SDS011;50945;44.472;-123.352;2022-08-19T09:19:28;1.15;;;1.00;;
64550;SDS011;50945;44.472;-123.352;2022-08-19T09:21:55;1.30;;;1.30;;
64550;SDS011;50945;44.472;-123.352;2022-08-19T09:26:48;1.75;;;0.85;;
64550;SDS011;50945;44.472;-123.352;2022-08-19T09:29:14;0.93;;;0.93;;
64550;SDS011;50945;44.472;-123.352;2022-08-19T09:31:40;0.90;;;0.90;;
64550;SDS011;50945;44.472;-123.352;2022-08-19T09:34:06;2.28;;;0.90;;
64550;SDS011;50945;44.472;-123.352;2022-08-19T09:36:33;0.93;;;0.93;;
64550;SDS011;50945;44.472;-123.352;2022-08-19T09:39:04;1.27;;;0.95;;
64550;SDS011;50945;44.472;-123.352;2022-08-19T09:41:31;0.90;;;0.90;;
64550;SDS011;50945;44.472;-123.352;2022-08-19T09:43:58;0.60;;;0.60;;
64550;SDS011;50945;44.472;-123.352;2022-08-19T09:46:25;0.80;;;0.80;;
64550;SDS011;50945;44.472;-123.352;2022-08-19T09:48:53;0.98;;;0.90;;
64550;SDS011;50945;44.472;-123.352;2022-08-19T09:51:22;0.77;;;0.77;;
64550;SDS011;50945;44.472;-123.352;2022-08-19T09:53:51;1.08;;;0.98;;
64550;SDS011;50945;44.472;-123.352;2022-08-19T09:56:22;1.08;;;1.08;;
64550;SDS011;50945;44.472;-123.352;2022-08-19T09:58:48;1.75;;;0.98;;
64550;SDS011;50945;44.472;-123.352;2022-08-19T10:01:16;0.82;;;0.82;;
64550;SDS011;50945;44.472;-123.352;2022-08-19T10:03:46;2.15;;;0.77;;
64550;SDS011;50945;44.472;-123.352;2022-08-19T10:06:14;0.80;;;0.80;;
64550;SDS011;50945;44.472;-123.352;2022-08-19T10:08:41;1.20;;;0.98;;
64550;SDS011;50945;44.472;-123.352;2022-08-19T10:11:08;2.40;;;1.15;;
64550;SDS011;50945;44.472;-123.352;2022-08-19T10:16:06;2.00;;;1.20;;
64550;SDS011;50945;44.472;-123.352;2022-08-19T10:18:35;2.25;;;1.13;;
64550;SDS011;50945;44.472;-123.352;2022-08-19T10:23:40;2.72;;;1.25;;
64550;SDS011;50945;44.472;-123.352;2022-08-19T10:26:11;2.42;;;1.60;;
64550;SDS011;50945;44.472;-123.352;2022-08-19T10:28:42;2.28;;;1.50;;
64550;SDS011;50945;44.472;-123.352;2022-08-19T10:31:10;1.75;;;1.10;;
64550;SDS011;50945;44.472;-123.352;2022-08-19T10:33:40;2.03;;;1.42;;
64550;SDS011;50945;44.472;-123.352;2022-08-19T10:36:11;1.95;;;1.30;;
64550;SDS011;50945;44.472;-123.352;2022-08-19T10:38:42;1.40;;;1.40;;
64550;SDS011;50945;44.472;-123.352;2022-08-19T10:41:11;2.05;;;1.00;;
64550;SDS011;50945;44.472;-123.352;2022-08-19T10:43:43;0.90;;;0.90;;
64550;SDS011;50945;44.472;-123.352;2022-08-19T10:46:11;1.00;;;0.93;;
64550;SDS011;50945;44.472;-123.352;2022-08-19T10:48:40;2.40;;;1.00;;
64550;SDS011;50945;44.472;-123.352;2022-08-19T10:51:08;1.08;;;0.90;;
64550;SDS011;50945;44.472;-123.352;2022-08-19T10:53:53;1.13;;;0.77;;
64550;SDS011;50945;44.472;-123.352;2022-08-19T10:56:21;0.82;;;0.82;;
64550;SDS011;50945;44.472;-123.352;2022-08-19T10:59:06;0.65;;;0.65;;
64550;SDS011;50945;44.472;-123.352;2022-08-19T11:01:33;1.30;;;1.05;;
64550;SDS011;50945;44.472;-123.352;2022-08-19T11:04:01;2.40;;;0.80;;
64550;SDS011;50945;44.472;-123.352;2022-08-19T11:06:29;0.95;;;0.70;;
64550;SDS011;50945;44.472;-123.352;2022-08-19T11:08:57;0.93;;;0.85;;
64550;SDS011;50945;44.472;-123.352;2022-08-19T11:11:25;0.60;;;0.60;;
64550;SDS011;50945;44.472;-123.352;2022-08-19T11:13:51;1.20;;;0.50;;
64550;SDS011;50945;44.472;-123.352;2022-08-19T11:18:50;1.52;;;0.60;;
64550;SDS011;50945;44.472;-123.352;2022-08-19T11:23:49;0.60;;;0.60;;
64550;SDS011;50945;44.472;-123.352;2022-08-19T11:26:19;0.80;;;0.80;;
64550;SDS011;50945;44.472;-123.352;2022-08-19T11:28:46;1.52;;;0.68;;
64550;SDS011;50945;44.472;-123.352;2022-08-19T11:31:15;0.68;;;0.68;;
64550;SDS011;50945;44.472;-123.352;2022-08-19T11:33:43;1.17;;;0.90;;
64550;SDS011;50945;44.472;-123.352;2022-08-19T11:36:11;1.27;;;0.80;;
64550;SDS011;50945;44.472;-123.352;2022-08-19T11:38:38;0.88;;;0.88;;
64550;SDS011;50945;44.472;-123.352;2022-08-19T11:41:06;0.90;;;0.90;;
64550;SDS011;50945;44.472;-123.352;2022-08-19T11:43:33;2.60;;;0.80;;
64550;SDS011;50945;44.472;-123.352;2022-08-19T11:46:03;2.75;;;1.02;;
64550;SDS011;50945;44.472;-123.352;2022-08-19T11:48:32;0.95;;;0.95;;
64550;SDS011;50945;44.472;-123.352;2022-08-19T11:50:59;0.98;;;0.98;;
64550;SDS011;50945;44.472;-123.352;2022-08-19T11:53:30;0.80;;;0.80;;
64550;SDS011;50945;44.472;-123.352;2022-08-19T11:55:56;0.80;;;0.65;;
64550;SDS011;50945;44.472;-123.352;2022-08-19T11:58:23;0.68;;;0.68;;
64550;SDS011;50945;44.472;-123.352;2022-08-19T12:00:50;0.80;;;0.80;;
64550;SDS011;50945;44.472;-123.352;2022-08-19T12:03:17;0.85;;;0.40;;
64550;SDS011;50945;44.472;-123.352;2022-08-19T12:05:44;2.40;;;0.90;;
64550;SDS011;50945;44.472;-123.352;2022-08-19T12:08:11;0.98;;;0.88;;
64550;SDS011;50945;44.472;-123.352;2022-08-19T12:10:38;1.02;;;0.95;;
64550;SDS011;50945;44.472;-123.352;2022-08-19T12:13:07;0.80;;;0.80;;
64550;SDS011;50945;44.472;-123.352;2022-08-19T12:15:36;0.50;;;0.50;;
64550;SDS011;50945;44.472;-123.352;2022-08-19T12:18:06;0.88;;;0.88;;
64550;SDS011;50945;44.472;-123.352;2022-08-19T12:20:38;1.50;;;0.93;;
64550;SDS011;50945;44.472;-123.352;2022-08-19T12:23:06;0.95;;;0.95;;
64550;SDS011;50945;44.472;-123.352;2022-08-19T12:25:35;0.93;;;0.82;;
64550;SDS011;50945;44.472;-123.352;2022-08-19T12:28:02;0.95;;;0.95;;
64550;SDS011;50945;44.472;-123.352;2022-08-19T12:30:29;0.85;;;0.85;;
64550;SDS011;50945;44.472;-123.352;2022-08-19T12:32:55;0.80;;;0.80;;
64550;SDS011;50945;44.472;-123.352;2022-08-19T12:35:21;0.90;;;0.90;;
64550;SDS011;50945;44.472;-123.352;2022-08-19T12:37:48;1.42;;;1.25;;
64550;SDS011;50945;44.472;-123.352;2022-08-19T12:42:42;1.33;;;1.10;;
64550;SDS011;50945;44.472;-123.352;2022-08-19T12:47:39;0.90;;;0.90;;
64550;SDS011;50945;44.472;-123.352;2022-08-19T12:50:06;1.45;;;1.38;;
64550;SDS011;50945;44.472;-123.352;2022-08-19T12:52:34;0.90;;;0.90;;
64550;SDS011;50945;44.472;-123.352;2022-08-19T12:55:09;0.80;;;0.80;;
64550;SDS011;50945;44.472;-123.352;2022-08-19T12:57:37;1.15;;;0.98;;
64550;SDS011;50945;44.472;-123.352;2022-08-19T13:02:38;3.60;;;1.23;;
64550;SDS011;50945;44.472;-123.352;2022-08-19T13:05:06;5.10;;;1.15;;
64550;SDS011;50945;44.472;-123.352;2022-08-19T13:07:35;0.90;;;0.90;;
64550;SDS011;50945;44.472;-123.352;2022-08-19T13:10:04;1.20;;;1.08;;
64550;SDS011;50945;44.472;-123.352;2022-08-19T13:12:34;1.15;;;1.00;;
64550;SDS011;50945;44.472;-123.352;2022-08-19T13:15:01;0.70;;;0.70;;
64550;SDS011;50945;44.472;-123.352;2022-08-19T13:17:28;1.20;;;1.10;;
64550;SDS011;50945;44.472;-123.352;2022-08-19T13:19:54;1.63;;;0.88;;
64550;SDS011;50945;44.472;-123.352;2022-08-19T13:22:20;1.13;;;0.98;;
64550;SDS011;50945;44.472;-123.352;2022-08-19T13:24:46;0.50;;;0.50;;
64550;SDS011;50945;44.472;-123.352;2022-08-19T13:27:13;0.98;;;0.98;;
64550;SDS011;50945;44.472;-123.352;2022-08-19T13:32:25;1.58;;;1.20;;
64550;SDS011;50945;44.472;-123.352;2022-08-19T13:35:09;1.55;;;1.33;;
64550;SDS011;50945;44.472;-123.352;2022-08-19T13:37:36;1.20;;;1.08;;
64550;SDS011;50945;44.472;-123.352;2022-08-19T13:40:16;1.10;;;1.10;;
64550;SDS011;50945;44.472;-123.352;2022-08-19T13:42:47;1.00;;;1.00;;
64550;SDS011;50945;44.472;-123.352;2022-08-19T13:45:16;1.67;;;1.30;;
64550;SDS011;50945;44.472;-123.352;2022-08-19T13:47:48;1.42;;;1.33;;
64550;SDS011;50945;44.472;-123.352;2022-08-19T13:50:18;1.98;;;1.25;;
64550;SDS011;50945;44.472;-123.352;2022-08-19T13:52:47;1.08;;;1.08;;
64550;SDS011;50945;44.472;-123.352;2022-08-19T13:55:14;1.10;;;0.93;;
64550;SDS011;50945;44.472;-123.352;2022-08-19T13:57:41;2.15;;;1.23;;
64550;SDS011;50945;44.472;-123.352;2022-08-19T14:00:12;1.58;;;1.10;;
64550;SDS011;50945;44.472;-123.352;2022-08-19T14:02:43;2.75;;;1.50;;
64550;SDS011;50945;44.472;-123.352;2022-08-19T14:05:14;0.88;;;0.88;;
64550;SDS011;50945;44.472;-123.352;2022-08-19T14:07:41;3.42;;;1.20;;
64550;SDS011;50945;44.472;-123.352;2022-08-19T14:10:09;1.58;;;0.88;;
64550;SDS011;50945;44.472;-123.352;2022-08-19T14:12:37;0.68;;;0.63;;
64550;SDS011;50945;44.472;-123.352;2022-08-19T14:15:04;1.05;;;1.05;;
64550;SDS011;50945;44.472;-123.352;2022-08-19T14:17:32;0.85;;;0.77;;
64550;SDS011;50945;44.472;-123.352;2022-08-19T14:20:04;1.33;;;1.10;;
64550;SDS011;50945;44.472;-123.352;2022-08-19T14:22:33;2.78;;;1.27;;
64550;SDS011;50945;44.472;-123.352;2022-08-19T14:25:07;1.05;;;1.05;;
64550;SDS011;50945;44.472;-123.352;2022-08-19T14:27:35;0.93;;;0.93;;
64550;SDS011;50945;44.472;-123.352;2022-08-19T14:30:03;1.00;;;0.90;;
64550;SDS011;50945;44.472;-123.352;2022-08-19T14:32:32;1.50;;;1.40;;
64550;SDS011;50945;44.472;-123.352;2022-08-19T14:34:59;1.88;;;0.95;;
64550;SDS011;50945;44.472;-123.352;2022-08-19T14:37:26;1.08;;;0.95;;
64550;SDS011;50945;44.472;-123.352;2022-08-19T14:39:52;1.02;;;0.95;;
64550;SDS011;50945;44.472;-123.352;2022-08-19T14:42:18;0.75;;;0.75;;
64550;SDS011;50945;44.472;-123.352;2022-08-19T14:44:45;1.38;;;1.05;;
64550;SDS011;50945;44.472;-123.352;2022-08-19T14:49:37;1.00;;;0.50;;
64550;SDS011;50945;44.472;-123.352;2022-08-19T14:52:04;0.68;;;0.50;;
64550;SDS011;50945;44.472;-123.352;2022-08-19T14:56:57;1.48;;;0.60;;
64550;SDS011;50945;44.472;-123.352;2022-08-19T14:59:23;0.47;;;0.47;;
64550;SDS011;50945;44.472;-123.352;2022-08-19T15:01:49;3.00;;;0.90;;
64550;SDS011;50945;44.472;-123.352;2022-08-19T15:04:16;6.55;;;1.27;;
64550;SDS011;50945;44.472;-123.352;2022-08-19T15:06:42;0.90;;;0.90;;
64550;SDS011;50945;44.472;-123.352;2022-08-19T15:09:09;2.05;;;0.68;;
64550;SDS011;50945;44.472;-123.352;2022-08-19T15:11:35;3.13;;;1.00;;
64550;SDS011;50945;44.472;-123.352;2022-08-19T15:14:02;2.38;;;0.73;;
64550;SDS011;50945;44.472;-123.352;2022-08-19T15:16:30;1.38;;;0.90;;
64550;SDS011;50945;44.472;-123.352;2022-08-19T15:18:58;2.10;;;0.95;;